sensor_id;sensor_type;location;lat;lon;timestamp;P1;durP1;ratioP1;P2;durP2;ratioP2
62256;SDS011;48240;52.962;5.790;2022-09-25T00:00:37;3.90;;;1.23;;
62256;SDS011;48240;52.962;5.790;2022-09-25T00:03:04;2.97;;;1.30;;
62256;SDS011;48240;52.962;5.790;2022-09-25T00:05:30;4.47;;;1.30;;
62256;SDS011;48240;52.962;5.790;2022-09-25T00:07:56;5.97;;;1.10;;
62256;SDS011;48240;52.962;5.790;2022-09-25T00:10:22;2.72;;;1.20;;
62256;SDS011;48240;52.962;5.790;2022-09-25T00:12:53;3.35;;;1.25;;
62256;SDS011;48240;52.962;5.790;2022-09-25T00:15:19;2.90;;;1.05;;
62256;SDS011;48240;52.962;5.790;2022-09-25T00:17:45;2.58;;;0.95;;
62256;SDS011;48240;52.962;5.790;2022-09-25T00:20:11;2.45;;;1.13;;
62256;SDS011;48240;52.962;5.790;2022-09-25T00:22:38;2.63;;;0.93;;
62256;SDS011;48240;52.962;5.790;2022-09-25T00:25:08;3.13;;;0.90;;
62256;SDS011;48240;52.962;5.790;2022-09-25T00:27:35;4.15;;;1.10;;
62256;SDS011;48240;52.962;5.790;2022-09-25T00:30:01;2.63;;;1.00;;
62256;SDS011;48240;52.962;5.790;2022-09-25T00:32:29;3.40;;;1.00;;
62256;SDS011;48240;52.962;5.790;2022-09-25T00:34:55;3.80;;;1.23;;
62256;SDS011;48240;52.962;5.790;2022-09-25T00:37:21;2.28;;;1.00;;
62256;SDS011;48240;52.962;5.790;2022-09-25T00:39:47;4.28;;;1.10;;
62256;SDS011;48240;52.962;5.790;2022-09-25T00:42:13;2.97;;;1.17;;
62256;SDS011;48240;52.962;5.790;2022-09-25T00:44:59;4.15;;;1.10;;
62256;SDS011;48240;52.962;5.790;2022-09-25T00:50:01;2.88;;;1.00;;
62256;SDS011;48240;52.962;5.790;2022-09-25T00:52:27;4.07;;;0.90;;
62256;SDS011;48240;52.962;5.790;2022-09-25T00:55:02;3.95;;;0.80;;
62256;SDS011;48240;52.962;5.790;2022-09-25T00:57:30;2.78;;;0.90;;
62256;SDS011;48240;52.962;5.790;2022-09-25T00:59:59;2.17;;;0.77;;
62256;SDS011;48240;52.962;5.790;2022-09-25T01:02:30;2.42;;;0.77;;
62256;SDS011;48240;52.962;5.790;2022-09-25T01:04:59;2.65;;;0.90;;
62256;SDS011;48240;52.962;5.790;2022-09-25T01:07:25;1.50;;;0.82;;
62256;SDS011;48240;52.962;5.790;2022-09-25T01:09:52;4.05;;;0.98;;
62256;SDS011;48240;52.962;5.790;2022-09-25T01:12:23;1.58;;;0.80;;
62256;SDS011;48240;52.962;5.790;2022-09-25T01:14:49;3.45;;;1.10;;
62256;SDS011;48240;52.962;5.790;2022-09-25T01:17:19;2.75;;;0.95;;
62256;SDS011;48240;52.962;5.790;2022-09-25T01:22:26;2.40;;;0.75;;
62256;SDS011;48240;52.962;5.790;2022-09-25T01:30:31;2.45;;;0.80;;
62256;SDS011;48240;52.962;5.790;2022-09-25T01:33:08;2.33;;;0.80;;
62256;SDS011;48240;52.962;5.790;2022-09-25T01:38:28;2.33;;;0.80;;
62256;SDS011;48240;52.962;5.790;2022-09-25T01:43:42;1.90;;;0.80;;
62256;SDS011;48240;52.962;5.790;2022-09-25T01:46:21;1.23;;;0.70;;
62256;SDS011;48240;52.962;5.790;2022-09-25T01:48:53;1.38;;;0.73;;
62256;SDS011;48240;52.962;5.790;2022-09-25T01:51:20;2.15;;;0.75;;
62256;SDS011;48240;52.962;5.790;2022-09-25T01:53:51;2.55;;;0.90;;
62256;SDS011;48240;52.962;5.790;2022-09-25T01:56:26;3.70;;;0.80;;
62256;SDS011;48240;52.962;5.790;2022-09-25T01:59:44;3.80;;;0.90;;
62256;SDS011;48240;52.962;5.790;2022-09-25T02:01:45;3.30;;;0.90;;
62256;SDS011;48240;52.962;5.790;2022-09-25T02:04:14;3.70;;;0.90;;
62256;SDS011;48240;52.962;5.790;2022-09-25T02:06:43;1.63;;;0.60;;
62256;SDS011;48240;52.962;5.790;2022-09-25T02:09:12;3.80;;;0.88;;
62256;SDS011;48240;52.962;5.790;2022-09-25T02:11:44;2.13;;;0.65;;
62256;SDS011;48240;52.962;5.790;2022-09-25T02:14:20;2.08;;;0.70;;
62256;SDS011;48240;52.962;5.790;2022-09-25T02:16:47;2.50;;;0.70;;
62256;SDS011;48240;52.962;5.790;2022-09-25T02:19:15;1.52;;;0.70;;
62256;SDS011;48240;52.962;5.790;2022-09-25T02:22:10;2.88;;;0.80;;
62256;SDS011;48240;52.962;5.790;2022-09-25T02:27:11;2.83;;;0.75;;
62256;SDS011;48240;52.962;5.790;2022-09-25T02:29:38;1.25;;;0.80;;
62256;SDS011;48240;52.962;5.790;2022-09-25T02:32:06;1.40;;;0.50;;
62256;SDS011;48240;52.962;5.790;2022-09-25T02:34:33;2.15;;;0.70;;
62256;SDS011;48240;52.962;5.790;2022-09-25T02:36:59;1.52;;;0.52;;
62256;SDS011;48240;52.962;5.790;2022-09-25T02:39:26;1.95;;;0.70;;
62256;SDS011;48240;52.962;5.790;2022-09-25T02:53:16;2.75;;;0.65;;
62256;SDS011;48240;52.962;5.790;2022-09-25T02:55:51;3.33;;;0.60;;
62256;SDS011;48240;52.962;5.790;2022-09-25T03:00:49;2.40;;;0.68;;
62256;SDS011;48240;52.962;5.790;2022-09-25T03:03:17;1.90;;;0.57;;
62256;SDS011;48240;52.962;5.790;2022-09-25T03:05:45;1.52;;;0.60;;
62256;SDS011;48240;52.962;5.790;2022-09-25T03:08:11;0.88;;;0.52;;
62256;SDS011;48240;52.962;5.790;2022-09-25T03:10:56;1.40;;;0.60;;
62256;SDS011;48240;52.962;5.790;2022-09-25T03:13:24;1.90;;;0.73;;
62256;SDS011;48240;52.962;5.790;2022-09-25T03:18:28;2.00;;;0.73;;
62256;SDS011;48240;52.962;5.790;2022-09-25T03:20:55;1.40;;;0.60;;
62256;SDS011;48240;52.962;5.790;2022-09-25T03:23:21;1.02;;;0.70;;
62256;SDS011;48240;52.962;5.790;2022-09-25T03:25:47;1.67;;;0.70;;
62256;SDS011;48240;52.962;5.790;2022-09-25T03:28:14;3.30;;;0.65;;
62256;SDS011;48240;52.962;5.790;2022-09-25T03:30:40;1.85;;;0.55;;
62256;SDS011;48240;52.962;5.790;2022-09-25T03:33:07;2.22;;;0.60;;
62256;SDS011;48240;52.962;5.790;2022-09-25T03:35:34;2.33;;;0.70;;
62256;SDS011;48240;52.962;5.790;2022-09-25T03:38:01;2.60;;;0.80;;
62256;SDS011;48240;52.962;5.790;2022-09-25T03:40:27;1.83;;;0.60;;
62256;SDS011;48240;52.962;5.790;2022-09-25T03:42:53;1.75;;;0.60;;
62256;SDS011;48240;52.962;5.790;2022-09-25T03:45:19;1.55;;;0.50;;
62256;SDS011;48240;52.962;5.790;2022-09-25T03:47:45;1.60;;;0.50;;
62256;SDS011;48240;52.962;5.790;2022-09-25T03:50:11;1.70;;;0.60;;
62256;SDS011;48240;52.962;5.790;2022-09-25T03:52:37;3.55;;;1.00;;
62256;SDS011;48240;52.962;5.790;2022-09-25T03:55:03;1.92;;;0.50;;
62256;SDS011;48240;52.962;5.790;2022-09-25T03:57:30;2.35;;;0.70;;
62256;SDS011;48240;52.962;5.790;2022-09-25T03:59:56;3.03;;;0.80;;
62256;SDS011;48240;52.962;5.790;2022-09-25T04:02:27;2.83;;;0.70;;
62256;SDS011;48240;52.962;5.790;2022-09-25T04:04:54;2.88;;;0.90;;
62256;SDS011;48240;52.962;5.790;2022-09-25T04:07:20;1.38;;;0.63;;
62256;SDS011;48240;52.962;5.790;2022-09-25T04:09:46;9.13;;;2.38;;
62256;SDS011;48240;52.962;5.790;2022-09-25T04:12:12;3.08;;;1.25;;
62256;SDS011;48240;52.962;5.790;2022-09-25T04:14:39;1.52;;;0.68;;
62256;SDS011;48240;52.962;5.790;2022-09-25T04:17:06;3.53;;;1.00;;
62256;SDS011;48240;52.962;5.790;2022-09-25T04:19:32;2.63;;;0.70;;
62256;SDS011;48240;52.962;5.790;2022-09-25T04:21:58;3.22;;;0.77;;
62256;SDS011;48240;52.962;5.790;2022-09-25T04:24:24;5.38;;;0.77;;
62256;SDS011;48240;52.962;5.790;2022-09-25T04:27:09;4.43;;;1.02;;
62256;SDS011;48240;52.962;5.790;2022-09-25T04:29:35;2.17;;;1.00;;
62256;SDS011;48240;52.962;5.790;2022-09-25T04:32:01;4.30;;;1.00;;
62256;SDS011;48240;52.962;5.790;2022-09-25T04:34:46;2.63;;;0.80;;
62256;SDS011;48240;52.962;5.790;2022-09-25T04:37:12;2.97;;;0.95;;
62256;SDS011;48240;52.962;5.790;2022-09-25T04:39:39;3.90;;;0.80;;
62256;SDS011;48240;52.962;5.790;2022-09-25T04:42:05;2.22;;;0.93;;
62256;SDS011;48240;52.962;5.790;2022-09-25T04:44:31;2.50;;;0.88;;
62256;SDS011;48240;52.962;5.790;2022-09-25T04:46:57;4.65;;;1.10;;
62256;SDS011;48240;52.962;5.790;2022-09-25T04:49:23;3.65;;;0.90;;
62256;SDS011;48240;52.962;5.790;2022-09-25T04:51:49;2.78;;;0.73;;
62256;SDS011;48240;52.962;5.790;2022-09-25T04:54:15;3.47;;;1.05;;
62256;SDS011;48240;52.962;5.790;2022-09-25T04:56:42;1.90;;;0.70;;
62256;SDS011;48240;52.962;5.790;2022-09-25T04:59:08;5.75;;;1.00;;
62256;SDS011;48240;52.962;5.790;2022-09-25T05:01:36;1.52;;;0.90;;
62256;SDS011;48240;52.962;5.790;2022-09-25T05:04:02;3.92;;;1.20;;
62256;SDS011;48240;52.962;5.790;2022-09-25T05:06:29;2.13;;;0.85;;
62256;SDS011;48240;52.962;5.790;2022-09-25T05:08:55;3.63;;;1.13;;
62256;SDS011;48240;52.962;5.790;2022-09-25T05:11:22;2.47;;;0.95;;
62256;SDS011;48240;52.962;5.790;2022-09-25T05:13:48;2.33;;;1.00;;
62256;SDS011;48240;52.962;5.790;2022-09-25T05:16:15;5.30;;;1.10;;
62256;SDS011;48240;52.962;5.790;2022-09-25T05:18:41;2.25;;;0.90;;
62256;SDS011;48240;52.962;5.790;2022-09-25T05:21:07;1.73;;;1.00;;
62256;SDS011;48240;52.962;5.790;2022-09-25T05:23:33;1.48;;;0.70;;
62256;SDS011;48240;52.962;5.790;2022-09-25T05:25:59;1.25;;;0.82;;
62256;SDS011;48240;52.962;5.790;2022-09-25T05:28:29;2.95;;;0.80;;
62256;SDS011;48240;52.962;5.790;2022-09-25T05:30:59;3.38;;;1.00;;
62256;SDS011;48240;52.962;5.790;2022-09-25T05:35:53;3.85;;;0.90;;
62256;SDS011;48240;52.962;5.790;2022-09-25T05:38:19;3.38;;;0.98;;
62256;SDS011;48240;52.962;5.790;2022-09-25T05:40:45;2.33;;;1.00;;
62256;SDS011;48240;52.962;5.790;2022-09-25T05:43:11;2.42;;;0.77;;
62256;SDS011;48240;52.962;5.790;2022-09-25T05:45:37;4.85;;;0.90;;
62256;SDS011;48240;52.962;5.790;2022-09-25T05:48:04;1.92;;;0.90;;
62256;SDS011;48240;52.962;5.790;2022-09-25T05:50:31;2.97;;;1.40;;
62256;SDS011;48240;52.962;5.790;2022-09-25T05:52:57;3.08;;;1.00;;
62256;SDS011;48240;52.962;5.790;2022-09-25T05:55:24;4.45;;;1.10;;
62256;SDS011;48240;52.962;5.790;2022-09-25T05:57:50;2.50;;;1.10;;
62256;SDS011;48240;52.962;5.790;2022-09-25T06:00:16;3.47;;;1.02;;
62256;SDS011;48240;52.962;5.790;2022-09-25T06:02:42;1.73;;;0.90;;
62256;SDS011;48240;52.962;5.790;2022-09-25T06:05:09;1.35;;;0.85;;
62256;SDS011;48240;52.962;5.790;2022-09-25T06:07:35;4.20;;;1.00;;
62256;SDS011;48240;52.962;5.790;2022-09-25T06:10:01;3.25;;;0.90;;
62256;SDS011;48240;52.962;5.790;2022-09-25T06:12:28;3.03;;;1.02;;
62256;SDS011;48240;52.962;5.790;2022-09-25T06:14:54;3.22;;;1.00;;
62256;SDS011;48240;52.962;5.790;2022-09-25T06:17:20;4.65;;;0.90;;
62256;SDS011;48240;52.962;5.790;2022-09-25T06:19:46;4.10;;;1.00;;
62256;SDS011;48240;52.962;5.790;2022-09-25T06:22:13;2.38;;;0.90;;
62256;SDS011;48240;52.962;5.790;2022-09-25T06:24:39;3.40;;;0.88;;
62256;SDS011;48240;52.962;5.790;2022-09-25T06:27:06;1.55;;;0.85;;
62256;SDS011;48240;52.962;5.790;2022-09-25T06:29:32;2.78;;;0.70;;
62256;SDS011;48240;52.962;5.790;2022-09-25T06:31:58;6.05;;;1.10;;
62256;SDS011;48240;52.962;5.790;2022-09-25T06:34:24;1.95;;;0.90;;
62256;SDS011;48240;52.962;5.790;2022-09-25T06:36:52;1.85;;;0.98;;
62256;SDS011;48240;52.962;5.790;2022-09-25T06:39:18;4.78;;;1.10;;
62256;SDS011;48240;52.962;5.790;2022-09-25T06:41:45;1.95;;;0.90;;
62256;SDS011;48240;52.962;5.790;2022-09-25T06:44:11;1.75;;;1.00;;
62256;SDS011;48240;52.962;5.790;2022-09-25T06:46:37;5.18;;;1.13;;
62256;SDS011;48240;52.962;5.790;2022-09-25T06:49:03;2.45;;;0.90;;
62256;SDS011;48240;52.962;5.790;2022-09-25T06:51:32;3.53;;;0.82;;
62256;SDS011;48240;52.962;5.790;2022-09-25T06:53:59;1.77;;;0.85;;
62256;SDS011;48240;52.962;5.790;2022-09-25T06:56:25;2.20;;;1.00;;
62256;SDS011;48240;52.962;5.790;2022-09-25T06:58:51;4.35;;;1.00;;
62256;SDS011;48240;52.962;5.790;2022-09-25T07:01:17;1.95;;;0.75;;
62256;SDS011;48240;52.962;5.790;2022-09-25T07:03:43;2.00;;;1.00;;
62256;SDS011;48240;52.962;5.790;2022-09-25T07:06:14;1.60;;;0.73;;
62256;SDS011;48240;52.962;5.790;2022-09-25T07:08:41;3.67;;;0.98;;
62256;SDS011;48240;52.962;5.790;2022-09-25T07:11:12;2.63;;;0.98;;
62256;SDS011;48240;52.962;5.790;2022-09-25T07:13:38;4.82;;;0.93;;
62256;SDS011;48240;52.962;5.790;2022-09-25T07:16:06;1.83;;;0.90;;
62256;SDS011;48240;52.962;5.790;2022-09-25T07:18:33;3.40;;;1.20;;
62256;SDS011;48240;52.962;5.790;2022-09-25T07:21:00;2.05;;;0.90;;
62256;SDS011;48240;52.962;5.790;2022-09-25T07:23:27;3.25;;;0.80;;
62256;SDS011;48240;52.962;5.790;2022-09-25T07:25:55;4.05;;;0.80;;
62256;SDS011;48240;52.962;5.790;2022-09-25T07:28:21;4.18;;;1.33;;
62256;SDS011;48240;52.962;5.790;2022-09-25T07:30:47;2.83;;;1.00;;
62256;SDS011;48240;52.962;5.790;2022-09-25T07:33:14;3.60;;;1.08;;
62256;SDS011;48240;52.962;5.790;2022-09-25T07:35:40;4.53;;;0.80;;
62256;SDS011;48240;52.962;5.790;2022-09-25T07:38:06;2.88;;;1.05;;
62256;SDS011;48240;52.962;5.790;2022-09-25T07:40:33;2.45;;;0.85;;
62256;SDS011;48240;52.962;5.790;2022-09-25T07:43:02;2.35;;;0.90;;
62256;SDS011;48240;52.962;5.790;2022-09-25T07:45:28;3.15;;;0.90;;
62256;SDS011;48240;52.962;5.790;2022-09-25T07:47:55;2.88;;;0.98;;
62256;SDS011;48240;52.962;5.790;2022-09-25T07:50:21;4.40;;;1.15;;
62256;SDS011;48240;52.962;5.790;2022-09-25T07:52:48;5.25;;;0.80;;
62256;SDS011;48240;52.962;5.790;2022-09-25T07:55:14;1.73;;;0.73;;
62256;SDS011;48240;52.962;5.790;2022-09-25T07:57:40;2.60;;;0.80;;
62256;SDS011;48240;52.962;5.790;2022-09-25T08:00:08;3.75;;;0.90;;
62256;SDS011;48240;52.962;5.790;2022-09-25T08:02:34;2.53;;;0.95;;
62256;SDS011;48240;52.962;5.790;2022-09-25T08:05:00;3.25;;;0.80;;
62256;SDS011;48240;52.962;5.790;2022-09-25T08:07:26;3.55;;;0.85;;
62256;SDS011;48240;52.962;5.790;2022-09-25T08:09:53;2.40;;;0.90;;
62256;SDS011;48240;52.962;5.790;2022-09-25T08:12:19;1.30;;;0.60;;
62256;SDS011;48240;52.962;5.790;2022-09-25T08:14:48;1.50;;;0.75;;
62256;SDS011;48240;52.962;5.790;2022-09-25T08:17:14;3.45;;;1.05;;
62256;SDS011;48240;52.962;5.790;2022-09-25T08:19:40;6.47;;;0.90;;
62256;SDS011;48240;52.962;5.790;2022-09-25T08:22:06;1.65;;;0.80;;
62256;SDS011;48240;52.962;5.790;2022-09-25T08:24:32;4.20;;;1.00;;
62256;SDS011;48240;52.962;5.790;2022-09-25T08:26:58;4.47;;;0.82;;
62256;SDS011;48240;52.962;5.790;2022-09-25T08:29:24;3.20;;;0.85;;
62256;SDS011;48240;52.962;5.790;2022-09-25T08:31:50;2.45;;;0.80;;
62256;SDS011;48240;52.962;5.790;2022-09-25T08:34:17;3.30;;;0.90;;
62256;SDS011;48240;52.962;5.790;2022-09-25T08:36:43;4.10;;;0.90;;
62256;SDS011;48240;52.962;5.790;2022-09-25T08:39:12;2.53;;;0.65;;
62256;SDS011;48240;52.962;5.790;2022-09-25T08:49:38;2.83;;;0.60;;
62256;SDS011;48240;52.962;5.790;2022-09-25T08:52:06;2.55;;;0.77;;
62256;SDS011;48240;52.962;5.790;2022-09-25T08:54:36;1.67;;;0.80;;
62256;SDS011;48240;52.962;5.790;2022-09-25T08:57:47;0.70;;;0.50;;
62256;SDS011;48240;52.962;5.790;2022-09-25T08:59:50;5.07;;;0.80;;
62256;SDS011;48240;52.962;5.790;2022-09-25T09:02:20;2.97;;;0.60;;
62256;SDS011;48240;52.962;5.790;2022-09-25T09:04:48;2.55;;;0.70;;
62256;SDS011;48240;52.962;5.790;2022-09-25T09:12:52;3.75;;;0.75;;
62256;SDS011;48240;52.962;5.790;2022-09-25T09:15:31;3.63;;;0.73;;
62256;SDS011;48240;52.962;5.790;2022-09-25T09:18:01;3.90;;;0.63;;
62256;SDS011;48240;52.962;5.790;2022-09-25T09:20:36;6.30;;;0.50;;
62256;SDS011;48240;52.962;5.790;2022-09-25T09:23:06;8.10;;;1.73;;
62256;SDS011;48240;52.962;5.790;2022-09-25T09:33:35;3.28;;;0.52;;
62256;SDS011;48240;52.962;5.790;2022-09-25T09:36:24;1.63;;;0.50;;
62256;SDS011;48240;52.962;5.790;2022-09-25T09:41:57;4.68;;;0.65;;
62256;SDS011;48240;52.962;5.790;2022-09-25T09:44:29;5.10;;;0.60;;
62256;SDS011;48240;52.962;5.790;2022-09-25T09:49:40;5.55;;;0.85;;
62256;SDS011;48240;52.962;5.790;2022-09-25T09:52:10;1.48;;;0.55;;
62256;SDS011;48240;52.962;5.790;2022-09-25T09:57:13;3.95;;;0.55;;
62256;SDS011;48240;52.962;5.790;2022-09-25T09:59:42;2.15;;;0.65;;
62256;SDS011;48240;52.962;5.790;2022-09-25T10:02:31;2.40;;;0.77;;
62256;SDS011;48240;52.962;5.790;2022-09-25T10:04:55;2.00;;;0.50;;
62256;SDS011;48240;52.962;5.790;2022-09-25T10:07:23;4.22;;;0.70;;
62256;SDS011;48240;52.962;5.790;2022-09-25T10:09:53;3.33;;;0.47;;
62256;SDS011;48240;52.962;5.790;2022-09-25T10:12:32;4.45;;;0.57;;
62256;SDS011;48240;52.962;5.790;2022-09-25T10:15:01;1.55;;;0.60;;
62256;SDS011;48240;52.962;5.790;2022-09-25T10:17:28;2.22;;;0.50;;
62256;SDS011;48240;52.962;5.790;2022-09-25T10:20:11;4.38;;;0.80;;
62256;SDS011;48240;52.962;5.790;2022-09-25T10:22:39;3.45;;;0.70;;
62256;SDS011;48240;52.962;5.790;2022-09-25T10:25:07;3.47;;;0.85;;
62256;SDS011;48240;52.962;5.790;2022-09-25T10:32:26;3.13;;;0.82;;
62256;SDS011;48240;52.962;5.790;2022-09-25T10:34:52;2.22;;;0.50;;
62256;SDS011;48240;52.962;5.790;2022-09-25T10:37:19;2.13;;;0.60;;
62256;SDS011;48240;52.962;5.790;2022-09-25T10:39:59;3.70;;;0.75;;
62256;SDS011;48240;52.962;5.790;2022-09-25T10:44:57;4.18;;;0.77;;
62256;SDS011;48240;52.962;5.790;2022-09-25T10:55:20;5.13;;;1.30;;
62256;SDS011;48240;52.962;5.790;2022-09-25T10:57:48;6.38;;;1.20;;
62256;SDS011;48240;52.962;5.790;2022-09-25T11:00:22;3.17;;;1.00;;
62256;SDS011;48240;52.962;5.790;2022-09-25T11:02:49;4.82;;;1.00;;
62256;SDS011;48240;52.962;5.790;2022-09-25T11:05:18;2.63;;;1.00;;
62256;SDS011;48240;52.962;5.790;2022-09-25T11:07:49;2.30;;;1.00;;
62256;SDS011;48240;52.962;5.790;2022-09-25T11:11:19;3.70;;;1.60;;
62256;SDS011;48240;52.962;5.790;2022-09-25T11:13:18;3.65;;;0.98;;
62256;SDS011;48240;52.962;5.790;2022-09-25T11:15:46;2.58;;;0.85;;
62256;SDS011;48240;52.962;5.790;2022-09-25T11:18:33;2.65;;;0.80;;
62256;SDS011;48240;52.962;5.790;2022-09-25T11:21:04;4.25;;;1.00;;
62256;SDS011;48240;52.962;5.790;2022-09-25T11:26:07;2.47;;;0.80;;
62256;SDS011;48240;52.962;5.790;2022-09-25T11:31:20;4.07;;;1.00;;
62256;SDS011;48240;52.962;5.790;2022-09-25T11:36:19;2.67;;;0.82;;
62256;SDS011;48240;52.962;5.790;2022-09-25T11:38:54;2.03;;;0.88;;
62256;SDS011;48240;52.962;5.790;2022-09-25T11:44:27;5.55;;;1.13;;
62256;SDS011;48240;52.962;5.790;2022-09-25T11:49:30;3.22;;;0.90;;
62256;SDS011;48240;52.962;5.790;2022-09-25T11:57:27;4.28;;;1.05;;
62256;SDS011;48240;52.962;5.790;2022-09-25T12:00:08;6.75;;;2.28;;
62256;SDS011;48240;52.962;5.790;2022-09-25T12:08:17;4.18;;;1.23;;
62256;SDS011;48240;52.962;5.790;2022-09-25T12:16:01;10.45;;;3.10;;
62256;SDS011;48240;52.962;5.790;2022-09-25T12:23:48;15.60;;;3.00;;
62256;SDS011;48240;52.962;5.790;2022-09-25T12:32:12;15.00;;;3.70;;
62256;SDS011;48240;52.962;5.790;2022-09-25T12:39:48;17.70;;;2.95;;
62256;SDS011;48240;52.962;5.790;2022-09-25T12:44:49;14.73;;;2.80;;
62256;SDS011;48240;52.962;5.790;2022-09-25T12:49:48;10.18;;;2.17;;
62256;SDS011;48240;52.962;5.790;2022-09-25T12:52:18;7.78;;;2.08;;
62256;SDS011;48240;52.962;5.790;2022-09-25T12:54:49;6.80;;;2.20;;
62256;SDS011;48240;52.962;5.790;2022-09-25T13:02:11;8.77;;;2.40;;
62256;SDS011;48240;52.962;5.790;2022-09-25T13:09:59;10.07;;;1.85;;
62256;SDS011;48240;52.962;5.790;2022-09-25T13:12:35;7.25;;;1.60;;
62256;SDS011;48240;52.962;5.790;2022-09-25T13:15:05;8.52;;;1.55;;
62256;SDS011;48240;52.962;5.790;2022-09-25T13:17:33;6.57;;;1.70;;
62256;SDS011;48240;52.962;5.790;2022-09-25T13:22:44;8.95;;;1.77;;
62256;SDS011;48240;52.962;5.790;2022-09-25T13:25:11;7.45;;;1.50;;
62256;SDS011;48240;52.962;5.790;2022-09-25T13:27:44;6.40;;;1.38;;
62256;SDS011;48240;52.962;5.790;2022-09-25T13:30:24;6.25;;;1.83;;
62256;SDS011;48240;52.962;5.790;2022-09-25T13:32:52;6.07;;;1.70;;
62256;SDS011;48240;52.962;5.790;2022-09-25T13:35:20;11.98;;;1.30;;
62256;SDS011;48240;52.962;5.790;2022-09-25T13:37:47;3.63;;;1.15;;
62256;SDS011;48240;52.962;5.790;2022-09-25T13:40:21;5.03;;;1.20;;
62256;SDS011;48240;52.962;5.790;2022-09-25T13:43:19;3.83;;;1.17;;
62256;SDS011;48240;52.962;5.790;2022-09-25T13:45:47;8.63;;;2.03;;
62256;SDS011;48240;52.962;5.790;2022-09-25T13:50:52;3.72;;;1.27;;
62256;SDS011;48240;52.962;5.790;2022-09-25T13:56:20;3.83;;;1.00;;
62256;SDS011;48240;52.962;5.790;2022-09-25T14:01:47;5.35;;;1.20;;
62256;SDS011;48240;52.962;5.790;2022-09-25T14:04:18;8.18;;;1.40;;
62256;SDS011;48240;52.962;5.790;2022-09-25T14:06:46;6.43;;;1.15;;
62256;SDS011;48240;52.962;5.790;2022-09-25T14:09:17;6.40;;;1.27;;
62256;SDS011;48240;52.962;5.790;2022-09-25T14:14:37;5.05;;;1.17;;
62256;SDS011;48240;52.962;5.790;2022-09-25T14:17:08;5.43;;;1.20;;
62256;SDS011;48240;52.962;5.790;2022-09-25T14:19:38;5.93;;;1.15;;
62256;SDS011;48240;52.962;5.790;2022-09-25T14:22:06;5.60;;;0.93;;
62256;SDS011;48240;52.962;5.790;2022-09-25T14:24:40;5.07;;;1.17;;
62256;SDS011;48240;52.962;5.790;2022-09-25T14:27:22;5.15;;;1.10;;
62256;SDS011;48240;52.962;5.790;2022-09-25T14:32:35;3.65;;;0.90;;
62256;SDS011;48240;52.962;5.790;2022-09-25T14:40:27;7.43;;;1.20;;
62256;SDS011;48240;52.962;5.790;2022-09-25T14:49:11;3.05;;;0.90;;
62256;SDS011;48240;52.962;5.790;2022-09-25T14:51:14;5.78;;;0.95;;
62256;SDS011;48240;52.962;5.790;2022-09-25T14:53:50;2.42;;;0.90;;
62256;SDS011;48240;52.962;5.790;2022-09-25T14:56:18;4.18;;;1.05;;
62256;SDS011;48240;52.962;5.790;2022-09-25T14:58:55;4.03;;;1.00;;
62256;SDS011;48240;52.962;5.790;2022-09-25T15:01:26;3.72;;;1.10;;
62256;SDS011;48240;52.962;5.790;2022-09-25T15:03:57;2.00;;;0.80;;
62256;SDS011;48240;52.962;5.790;2022-09-25T15:06:28;1.95;;;0.75;;
62256;SDS011;48240;52.962;5.790;2022-09-25T15:11:22;2.03;;;0.82;;
62256;SDS011;48240;52.962;5.790;2022-09-25T15:13:51;8.05;;;1.10;;
62256;SDS011;48240;52.962;5.790;2022-09-25T15:16:19;3.33;;;1.10;;
62256;SDS011;48240;52.962;5.790;2022-09-25T15:19:13;4.20;;;0.98;;
62256;SDS011;48240;52.962;5.790;2022-09-25T15:21:41;4.05;;;0.90;;
62256;SDS011;48240;52.962;5.790;2022-09-25T15:24:27;5.57;;;1.10;;
62256;SDS011;48240;52.962;5.790;2022-09-25T15:26:56;2.72;;;0.70;;
62256;SDS011;48240;52.962;5.790;2022-09-25T15:29:27;6.25;;;1.10;;
62256;SDS011;48240;52.962;5.790;2022-09-25T15:31:54;3.80;;;0.90;;
62256;SDS011;48240;52.962;5.790;2022-09-25T15:34:24;3.15;;;0.90;;
62256;SDS011;48240;52.962;5.790;2022-09-25T15:39:23;3.40;;;0.95;;
62256;SDS011;48240;52.962;5.790;2022-09-25T15:41:50;1.80;;;0.90;;
62256;SDS011;48240;52.962;5.790;2022-09-25T15:44:17;1.73;;;0.70;;
62256;SDS011;48240;52.962;5.790;2022-09-25T15:46:45;1.75;;;0.80;;
62256;SDS011;48240;52.962;5.790;2022-09-25T15:49:13;2.58;;;0.80;;
62256;SDS011;48240;52.962;5.790;2022-09-25T15:51:43;1.98;;;0.70;;
62256;SDS011;48240;52.962;5.790;2022-09-25T15:59:05;3.53;;;0.90;;
62256;SDS011;48240;52.962;5.790;2022-09-25T16:01:37;3.03;;;0.90;;
62256;SDS011;48240;52.962;5.790;2022-09-25T16:04:25;5.50;;;1.02;;
62256;SDS011;48240;52.962;5.790;2022-09-25T16:07:19;14.95;;;1.00;;
62256;SDS011;48240;52.962;5.790;2022-09-25T16:09:47;4.00;;;0.95;;
62256;SDS011;48240;52.962;5.790;2022-09-25T16:14:43;3.88;;;0.90;;
62256;SDS011;48240;52.962;5.790;2022-09-25T16:17:23;4.40;;;0.80;;
62256;SDS011;48240;52.962;5.790;2022-09-25T16:19:56;4.88;;;0.80;;
62256;SDS011;48240;52.962;5.790;2022-09-25T16:22:22;7.85;;;1.00;;
62256;SDS011;48240;52.962;5.790;2022-09-25T16:24:49;3.33;;;0.70;;
62256;SDS011;48240;52.962;5.790;2022-09-25T16:27:23;5.30;;;1.80;;
62256;SDS011;48240;52.962;5.790;2022-09-25T16:29:50;5.03;;;1.05;;
62256;SDS011;48240;52.962;5.790;2022-09-25T16:32:18;4.07;;;0.77;;
62256;SDS011;48240;52.962;5.790;2022-09-25T16:34:56;4.10;;;0.85;;
62256;SDS011;48240;52.962;5.790;2022-09-25T16:37:22;3.58;;;1.00;;
62256;SDS011;48240;52.962;5.790;2022-09-25T16:42:37;3.85;;;1.00;;
62256;SDS011;48240;52.962;5.790;2022-09-25T16:45:14;3.72;;;1.00;;
62256;SDS011;48240;52.962;5.790;2022-09-25T16:47:41;3.72;;;0.95;;
62256;SDS011;48240;52.962;5.790;2022-09-25T16:50:08;6.57;;;0.88;;
62256;SDS011;48240;52.962;5.790;2022-09-25T16:52:34;4.35;;;1.13;;
62256;SDS011;48240;52.962;5.790;2022-09-25T16:55:04;5.68;;;1.27;;
62256;SDS011;48240;52.962;5.790;2022-09-25T16:57:34;2.65;;;0.75;;
62256;SDS011;48240;52.962;5.790;2022-09-25T17:00:00;4.32;;;0.75;;
62256;SDS011;48240;52.962;5.790;2022-09-25T17:02:29;3.30;;;0.70;;
62256;SDS011;48240;52.962;5.790;2022-09-25T17:05:04;3.38;;;1.00;;
62256;SDS011;48240;52.962;5.790;2022-09-25T17:07:31;3.90;;;1.17;;
62256;SDS011;48240;52.962;5.790;2022-09-25T17:09:57;5.35;;;1.05;;
62256;SDS011;48240;52.962;5.790;2022-09-25T17:12:25;2.00;;;1.10;;
62256;SDS011;48240;52.962;5.790;2022-09-25T17:14:51;2.83;;;1.00;;
62256;SDS011;48240;52.962;5.790;2022-09-25T17:17:19;3.60;;;0.98;;
62256;SDS011;48240;52.962;5.790;2022-09-25T17:19:46;2.58;;;0.90;;
62256;SDS011;48240;52.962;5.790;2022-09-25T17:22:12;2.83;;;0.93;;
62256;SDS011;48240;52.962;5.790;2022-09-25T17:24:38;2.30;;;0.93;;
62256;SDS011;48240;52.962;5.790;2022-09-25T17:27:11;11.65;;;3.25;;
62256;SDS011;48240;52.962;5.790;2022-09-25T17:29:38;12.55;;;4.53;;
62256;SDS011;48240;52.962;5.790;2022-09-25T17:32:04;14.80;;;5.20;;
62256;SDS011;48240;52.962;5.790;2022-09-25T17:34:32;14.50;;;6.10;;
62256;SDS011;48240;52.962;5.790;2022-09-25T17:36:59;19.52;;;6.28;;
62256;SDS011;48240;52.962;5.790;2022-09-25T17:39:25;14.95;;;6.07;;
62256;SDS011;48240;52.962;5.790;2022-09-25T17:41:51;15.25;;;5.68;;
62256;SDS011;48240;52.962;5.790;2022-09-25T17:44:18;15.82;;;5.43;;
62256;SDS011;48240;52.962;5.790;2022-09-25T17:46:50;11.00;;;4.65;;
62256;SDS011;48240;52.962;5.790;2022-09-25T17:49:19;14.00;;;4.97;;
62256;SDS011;48240;52.962;5.790;2022-09-25T17:51:47;10.82;;;4.70;;
62256;SDS011;48240;52.962;5.790;2022-09-25T17:54:13;11.98;;;4.45;;
62256;SDS011;48240;52.962;5.790;2022-09-25T17:56:41;9.07;;;4.38;;
62256;SDS011;48240;52.962;5.790;2022-09-25T17:59:09;9.82;;;4.57;;
62256;SDS011;48240;52.962;5.790;2022-09-25T18:01:36;12.10;;;3.85;;
62256;SDS011;48240;52.962;5.790;2022-09-25T18:06:59;10.85;;;4.32;;
62256;SDS011;48240;52.962;5.790;2022-09-25T18:09:25;11.02;;;4.32;;